Time,TemperatureF,DewpointF,PressureIn,WindDirection,WindDirectionDegrees,WindSpeedMPH,WindSpeedGustMPH,Humidity,HourlyPrecipIn,Conditions,Clouds,dailyrainin,SoftwareType,DateUTC
2013-02-18 00:07:00,54.5,46.0,30.24,ENE,67,0.0,0.0,73,0.00,,,0.00,open2300 v1.10,2013-02-17 11:07:00,
2013-02-18 00:22:00,55.0,46.9,30.24,ENE,67,0.0,0.0,74,0.00,,,0.00,open2300 v1.10,2013-02-17 11:22:00,
2013-02-18 00:37:00,55.4,47.2,30.24,ENE,67,0.0,0.0,74,0.00,,,0.00,open2300 v1.10,2013-02-17 11:37:00,
2013-02-18 00:53:00,55.9,47.7,30.24,ENE,67,0.0,0.0,74,0.00,,,0.00,open2300 v1.10,2013-02-17 11:53:00,
2013-02-18 01:07:00,56.3,48.1,30.24,ENE,67,0.0,0.0,74,0.00,,,0.00,open2300 v1.10,2013-02-17 12:07:00,
2013-02-18 01:22:00,56.5,48.2,30.24,ENE,67,0.0,0.0,74,0.00,,,0.00,open2300 v1.10,2013-02-17 12:22:00,
2013-02-18 01:37:00,57.0,48.7,30.24,ENE,67,0.0,0.0,74,0.00,,,0.00,open2300 v1.10,2013-02-17 12:37:00,
2013-02-18 01:53:00,57.0,49.1,30.25,ENE,67,0.0,0.0,75,0.00,,,0.00,open2300 v1.10,2013-02-17 12:53:00,
2013-02-18 02:07:00,57.4,49.1,30.25,ENE,67,0.0,0.0,74,0.00,,,0.00,open2300 v1.10,2013-02-17 13:07:00,
2013-02-18 02:21:00,57.6,49.3,30.25,ENE,67,0.0,0.0,74,0.00,,,0.00,open2300 v1.10,2013-02-17 13:21:00,
2013-02-18 02:37:00,57.7,49.5,30.24,ENE,67,0.0,0.0,74,0.00,,,0.00,open2300 v1.10,2013-02-17 13:37:00,
2013-02-18 02:52:00,57.7,49.5,30.24,ENE,67,0.0,0.0,74,0.00,,,0.00,open2300 v1.10,2013-02-17 13:52:00,
2013-02-18 03:06:00,57.6,49.3,30.24,ENE,67,0.0,0.0,74,0.00,,,0.00,open2300 v1.10,2013-02-17 14:06:00,
2013-02-18 03:22:00,56.5,48.2,30.24,ENE,67,0.0,0.0,74,0.00,,,0.00,open2300 v1.10,2013-02-17 14:22:00,
2013-02-18 03:37:00,55.6,47.4,30.25,ENE,67,0.0,0.0,74,0.00,,,0.00,open2300 v1.10,2013-02-17 14:37:00,
2013-02-18 03:52:00,54.5,46.7,30.24,ENE,67,0.0,0.0,75,0.00,,,0.00,open2300 v1.10,2013-02-17 14:52:00,
2013-02-18 04:07:00,54.1,46.7,30.25,ENE,67,0.0,0.0,76,0.00,,,0.00,open2300 v1.10,2013-02-17 15:07:00,
2013-02-18 04:22:00,53.8,46.4,30.25,ENE,67,0.0,0.0,76,0.00,,,0.00,open2300 v1.10,2013-02-17 15:22:00,
2013-02-18 04:37:00,53.8,46.4,30.25,ENE,67,0.0,0.0,76,0.00,,,0.00,open2300 v1.10,2013-02-17 15:37:00,
2013-02-18 04:52:00,53.2,46.2,30.25,ENE,67,0.0,0.0,77,0.00,,,0.00,open2300 v1.10,2013-02-17 15:52:00,
2013-02-18 05:07:00,52.9,45.9,30.25,ENE,67,0.0,0.0,77,0.00,,,0.00,open2300 v1.10,2013-02-17 16:07:00,
2013-02-18 05:22:00,52.5,45.9,30.25,ENE,67,0.0,0.0,78,0.00,,,0.00,open2300 v1.10,2013-02-17 16:22:00,
2013-02-18 05:37:00,52.3,45.7,30.24,ENE,67,0.0,0.0,78,0.00,,,0.00,open2300 v1.10,2013-02-17 16:37:00,
2013-02-18 05:52:00,52.0,45.3,30.24,ENE,67,0.0,0.0,78,0.00,,,0.00,open2300 v1.10,2013-02-17 16:52:00,
2013-02-18 06:07:00,52.2,45.9,30.24,ENE,67,0.0,0.0,79,0.00,,,0.00,open2300 v1.10,2013-02-17 17:07:00,
2013-02-18 06:22:00,52.5,46.2,30.25,ENE,67,0.0,0.0,79,0.00,,,0.00,open2300 v1.10,2013-02-17 17:22:00,
2013-02-18 06:37:00,52.9,46.6,30.25,ENE,67,0.0,0.0,79,0.00,,,0.00,open2300 v1.10,2013-02-17 17:37:00,
2013-02-18 06:52:00,53.2,46.9,30.25,ENE,67,0.0,0.0,79,0.00,,,0.00,open2300 v1.10,2013-02-17 17:52:00,
2013-02-18 07:07:00,53.6,47.3,30.25,ENE,67,0.0,0.0,79,0.00,,,0.00,open2300 v1.10,2013-02-17 18:07:00,
2013-02-18 07:21:00,54.3,48.0,30.26,ENE,67,0.0,0.0,79,0.00,,,0.00,open2300 v1.10,2013-02-17 18:21:00,
2013-02-18 07:37:00,55.0,48.6,30.26,ENE,67,0.0,0.0,79,0.00,,,0.00,open2300 v1.10,2013-02-17 18:37:00,
2013-02-18 07:52:00,55.9,49.8,30.26,ENE,67,0.0,0.0,80,0.00,,,0.00,open2300 v1.10,2013-02-17 18:52:00,
2013-02-18 08:07:00,57.0,50.5,30.26,ENE,67,0.0,0.0,79,0.00,,,0.00,open2300 v1.10,2013-02-17 19:07:00,
2013-02-18 08:22:00,58.3,51.8,30.26,ENE,67,0.0,0.0,79,0.00,,,0.00,open2300 v1.10,2013-02-17 19:22:00,
2013-02-18 08:37:00,59.5,52.7,30.26,ENE,67,0.0,0.0,78,0.00,,,0.00,open2300 v1.10,2013-02-17 19:37:00,
2013-02-18 08:52:00,61.9,53.5,30.27,ENE,67,0.0,0.0,74,0.00,,,0.00,open2300 v1.10,2013-02-17 19:52:00,
2013-02-18 09:07:00,63.9,54.3,30.27,ENE,67,0.0,0.0,71,0.00,,,0.00,open2300 v1.10,2013-02-17 20:07:00,
2013-02-18 09:22:00,65.3,54.9,30.27,ENE,67,0.0,0.0,69,0.00,,,0.00,open2300 v1.10,2013-02-17 20:22:00,
2013-02-18 09:37:00,66.2,54.9,30.26,ENE,67,0.0,0.0,67,0.00,,,0.00,open2300 v1.10,2013-02-17 20:37:00,
2013-02-18 09:52:00,67.8,55.2,30.27,ENE,67,0.0,0.0,64,0.00,,,0.00,open2300 v1.10,2013-02-17 20:52:00,
2013-02-18 10:07:00,68.7,54.5,30.27,ENE,67,0.0,0.0,61,0.00,,,0.00,open2300 v1.10,2013-02-17 21:07:00,
2013-02-18 10:22:00,69.1,53.7,30.28,ENE,67,0.0,0.0,58,0.00,,,0.00,open2300 v1.10,2013-02-17 21:22:00,
2013-02-18 10:37:00,70.3,54.9,30.27,ENE,67,0.0,0.0,58,0.00,,,0.00,open2300 v1.10,2013-02-17 21:37:00,
2013-02-18 10:52:00,71.2,55.2,30.28,ENE,67,0.0,0.0,57,0.00,,,0.00,open2300 v1.10,2013-02-17 21:52:00,
2013-02-18 11:07:00,72.3,55.2,30.28,ENE,67,0.0,0.0,55,0.00,,,0.00,open2300 v1.10,2013-02-17 22:07:00,
2013-02-18 11:22:00,73.0,55.3,30.28,ENE,67,0.0,0.0,54,0.00,,,0.00,open2300 v1.10,2013-02-17 22:22:00,
2013-02-18 11:37:00,72.9,54.6,30.28,ENE,67,0.0,0.0,53,0.00,,,0.00,open2300 v1.10,2013-02-17 22:37:00,
2013-02-18 11:52:00,73.8,55.5,30.26,ENE,67,0.0,0.0,53,0.00,,,0.00,open2300 v1.10,2013-02-17 22:52:00,
2013-02-18 12:07:00,74.7,55.4,30.26,ENE,67,0.0,0.0,51,0.00,,,0.00,open2300 v1.10,2013-02-17 23:07:00,
2013-02-18 12:22:00,75.6,55.7,30.26,ENE,67,0.0,0.0,50,0.00,,,0.00,open2300 v1.10,2013-02-17 23:22:00,
2013-02-18 12:37:00,75.0,55.2,30.26,ENE,67,0.0,0.0,50,0.00,,,0.00,open2300 v1.10,2013-02-17 23:37:00,
2013-02-18 12:52:00,75.9,56.0,30.25,ENE,67,0.0,0.0,50,0.00,,,0.00,open2300 v1.10,2013-02-17 23:52:00,
2013-02-18 13:06:00,76.3,55.2,30.25,ENE,67,0.0,0.0,48,0.00,,,0.00,open2300 v1.10,2013-02-18 00:06:00,
2013-02-18 13:22:00,76.8,55.6,30.25,ENE,67,0.0,0.0,48,0.00,,,0.00,open2300 v1.10,2013-02-18 00:22:00,
2013-02-18 13:37:00,76.8,55.6,30.24,ENE,67,0.0,0.0,48,0.00,,,0.00,open2300 v1.10,2013-02-18 00:37:00,
2013-02-18 13:52:00,76.8,55.6,30.24,ENE,67,0.0,0.0,48,0.00,,,0.00,open2300 v1.10,2013-02-18 00:52:00,
2013-02-18 14:07:00,76.6,55.5,30.24,ENE,67,0.0,0.0,48,0.00,,,0.00,open2300 v1.10,2013-02-18 01:07:00,
2013-02-18 14:22:00,77.0,56.4,30.24,ENE,67,0.0,0.0,49,0.00,,,0.00,open2300 v1.10,2013-02-18 01:22:00,
2013-02-18 14:36:00,77.5,56.9,30.23,ENE,67,0.0,0.0,49,0.00,,,0.00,open2300 v1.10,2013-02-18 01:36:00,
2013-02-18 14:51:00,77.5,56.9,30.22,ENE,67,0.0,0.0,49,0.00,,,0.00,open2300 v1.10,2013-02-18 01:51:00,
2013-02-18 15:06:00,77.4,56.7,30.22,ENE,67,0.0,0.0,49,0.00,,,0.00,open2300 v1.10,2013-02-18 02:06:00,
2013-02-18 15:22:00,77.4,56.1,30.22,ENE,67,0.0,0.0,48,0.00,,,0.00,open2300 v1.10,2013-02-18 02:22:00,
2013-02-18 15:37:00,77.0,55.8,30.22,ENE,67,0.0,0.0,48,0.00,,,0.00,open2300 v1.10,2013-02-18 02:37:00,
2013-02-18 15:52:00,76.8,55.6,30.22,ENE,67,0.0,0.0,48,0.00,,,0.00,open2300 v1.10,2013-02-18 02:52:00,
2013-02-18 16:07:00,77.7,56.4,30.22,ENE,67,0.0,0.0,48,0.00,,,0.00,open2300 v1.10,2013-02-18 03:07:00,
2013-02-18 16:22:00,76.8,55.6,30.22,ENE,67,0.0,0.0,48,0.00,,,0.00,open2300 v1.10,2013-02-18 03:22:00,
2013-02-18 16:37:00,76.6,56.1,30.21,ENE,67,0.0,0.0,49,0.00,,,0.00,open2300 v1.10,2013-02-18 03:37:00,
2013-02-18 16:52:00,76.6,56.1,30.21,ENE,67,0.0,0.0,49,0.00,,,0.00,open2300 v1.10,2013-02-18 03:52:00,
2013-02-18 17:05:00,80.4,57.7,30.21,West,270,0.0,0.0,46,0.00,,,0.00,open2300 v1.10,2013-02-18 04:05:00,
2013-02-18 17:22:00,85.1,59.5,30.22,ENE,67,0.0,0.0,42,0.00,,,0.00,open2300 v1.10,2013-02-18 04:22:00,
2013-02-18 17:36:00,86.2,58.3,30.22,ENE,67,0.0,0.0,39,0.00,,,0.00,open2300 v1.10,2013-02-18 04:36:00,
2013-02-18 17:52:00,78.6,54.8,30.22,ENE,67,0.0,0.0,44,0.00,,,0.00,open2300 v1.10,2013-02-18 04:52:00,
2013-02-18 18:07:00,69.6,52.2,30.22,ENE,67,0.0,0.0,54,0.00,,,0.00,open2300 v1.10,2013-02-18 05:07:00,
2013-02-18 18:22:00,66.6,52.3,30.22,ENE,67,0.0,0.0,60,0.00,,,0.00,open2300 v1.10,2013-02-18 05:22:00,
2013-02-18 18:37:00,65.1,52.2,30.23,ENE,67,0.0,0.0,63,0.00,,,0.00,open2300 v1.10,2013-02-18 05:37:00,
2013-02-18 18:52:00,64.0,52.4,30.22,ENE,67,0.0,0.0,66,0.00,,,0.00,open2300 v1.10,2013-02-18 05:52:00,
2013-02-18 19:06:00,63.3,52.6,30.22,ENE,67,0.0,0.0,68,0.00,,,0.00,open2300 v1.10,2013-02-18 06:06:00,
2013-02-18 19:22:00,62.4,52.1,30.23,ENE,67,0.0,0.0,69,0.00,,,0.00,open2300 v1.10,2013-02-18 06:22:00,
2013-02-18 19:37:00,61.7,52.2,30.23,ENE,67,0.0,0.0,71,0.00,,,0.00,open2300 v1.10,2013-02-18 06:37:00,
2013-02-18 19:52:00,61.2,52.1,30.24,ENE,67,0.0,0.0,72,0.00,,,0.00,open2300 v1.10,2013-02-18 06:52:00,
2013-02-18 20:07:00,60.6,52.0,30.24,ENE,67,0.0,0.0,73,0.00,,,0.00,open2300 v1.10,2013-02-18 07:07:00,
2013-02-18 20:21:00,60.4,52.2,30.24,ENE,67,0.0,0.0,74,0.00,,,0.00,open2300 v1.10,2013-02-18 07:21:00,
2013-02-18 20:37:00,60.1,52.2,30.25,ENE,67,0.0,0.0,75,0.00,,,0.00,open2300 v1.10,2013-02-18 07:37:00,
2013-02-18 20:52:00,59.7,51.8,30.25,ENE,67,0.0,0.0,75,0.00,,,0.00,open2300 v1.10,2013-02-18 07:52:00,
2013-02-18 21:07:00,59.4,51.8,30.26,ENE,67,0.0,0.0,76,0.00,,,0.00,open2300 v1.10,2013-02-18 08:07:00,
2013-02-18 21:21:00,58.8,51.3,30.27,ENE,67,0.0,0.0,76,0.00,,,0.00,open2300 v1.10,2013-02-18 08:21:00,
2013-02-18 21:36:00,58.8,51.6,30.27,ENE,67,0.0,0.0,77,0.00,,,0.00,open2300 v1.10,2013-02-18 08:36:00,
2013-02-18 21:53:00,58.8,51.6,30.28,ENE,67,0.0,0.0,77,0.00,,,0.00,open2300 v1.10,2013-02-18 08:53:00,
2013-02-18 22:07:00,58.8,51.6,30.28,ENE,67,0.0,0.0,77,0.00,,,0.00,open2300 v1.10,2013-02-18 09:07:00,
2013-02-18 22:22:00,58.8,52.0,30.29,ENE,67,0.0,0.0,78,0.00,,,0.00,open2300 v1.10,2013-02-18 09:22:00,
2013-02-18 22:37:00,58.6,51.4,30.29,ENE,67,0.0,0.0,77,0.00,,,0.00,open2300 v1.10,2013-02-18 09:37:00,
2013-02-18 22:53:00,58.3,51.1,30.29,ENE,67,0.0,0.0,77,0.00,,,0.00,open2300 v1.10,2013-02-18 09:53:00,
2013-02-18 23:07:00,57.9,50.7,30.28,ENE,67,0.0,0.0,77,0.00,,,0.00,open2300 v1.10,2013-02-18 10:07:00,
2013-02-18 23:22:00,57.4,50.5,30.28,ENE,67,0.0,0.0,78,0.00,,,0.00,open2300 v1.10,2013-02-18 10:22:00,
2013-02-18 23:37:00,57.0,50.2,30.28,ENE,67,0.0,0.0,78,0.00,,,0.00,open2300 v1.10,2013-02-18 10:37:00,
2013-02-18 23:53:00,57.0,50.2,30.28,ENE,67,0.0,0.0,78,0.00,,,0.00,open2300 v1.10,2013-02-18 10:53:00,